sensor_id;sensor_type;location;lat;lon;timestamp;noise_LAeq;noise_LA_min;noise_LA_max;noise_LA01;noise_LA95
67900;Laerm;54700;51.796;10.956;2024-03-07T00:00:25;28.56;27.03;34.84;;
67900;Laerm;54700;51.796;10.956;2024-03-07T00:02:53;49.07;27.60;69.80;;
67900;Laerm;54700;51.796;10.956;2024-03-07T00:05:21;51.15;27.55;68.56;;
67900;Laerm;54700;51.796;10.956;2024-03-07T00:07:50;29.09;27.32;36.16;;
67900;Laerm;54700;51.796;10.956;2024-03-07T00:10:18;50.17;27.10;66.30;;
67900;Laerm;54700;51.796;10.956;2024-03-07T00:12:46;29.35;27.35;35.08;;
67900;Laerm;54700;51.796;10.956;2024-03-07T00:15:14;30.45;27.45;38.09;;
67900;Laerm;54700;51.796;10.956;2024-03-07T00:17:41;29.12;27.37;34.05;;
67900;Laerm;54700;51.796;10.956;2024-03-07T00:20:11;29.19;27.41;34.21;;
67900;Laerm;54700;51.796;10.956;2024-03-07T00:22:40;28.70;27.41;35.34;;
67900;Laerm;54700;51.796;10.956;2024-03-07T00:25:08;29.05;27.19;34.21;;
67900;Laerm;54700;51.796;10.956;2024-03-07T00:27:38;29.68;27.34;36.45;;
67900;Laerm;54700;51.796;10.956;2024-03-07T00:30:08;29.37;27.57;31.62;;
67900;Laerm;54700;51.796;10.956;2024-03-07T00:32:35;50.15;27.61;68.71;;
67900;Laerm;54700;51.796;10.956;2024-03-07T00:35:05;50.83;27.39;66.96;;
67900;Laerm;54700;51.796;10.956;2024-03-07T00:37:34;29.37;27.67;35.95;;
67900;Laerm;54700;51.796;10.956;2024-03-07T00:40:01;29.32;27.42;34.02;;
67900;Laerm;54700;51.796;10.956;2024-03-07T00:42:28;30.91;28.11;36.88;;
67900;Laerm;54700;51.796;10.956;2024-03-07T00:44:57;31.35;27.83;38.25;;
67900;Laerm;54700;51.796;10.956;2024-03-07T00:47:27;46.09;27.78;64.65;;
67900;Laerm;54700;51.796;10.956;2024-03-07T00:49:57;49.03;27.52;67.99;;
67900;Laerm;54700;51.796;10.956;2024-03-07T00:52:24;31.46;28.19;37.48;;
67900;Laerm;54700;51.796;10.956;2024-03-07T00:54:51;29.32;27.62;33.13;;
67900;Laerm;54700;51.796;10.956;2024-03-07T00:57:18;30.48;27.72;40.88;;
67900;Laerm;54700;51.796;10.956;2024-03-07T00:59:45;31.14;28.08;41.45;;
67900;Laerm;54700;51.796;10.956;2024-03-07T01:02:13;40.74;28.29;64.84;;
67900;Laerm;54700;51.796;10.956;2024-03-07T01:04:42;49.74;27.73;65.10;;
67900;Laerm;54700;51.796;10.956;2024-03-07T01:07:09;52.35;28.00;69.94;;
67900;Laerm;54700;51.796;10.956;2024-03-07T01:09:36;32.19;28.21;41.72;;
67900;Laerm;54700;51.796;10.956;2024-03-07T01:12:05;33.96;28.96;44.83;;
67900;Laerm;54700;51.796;10.956;2024-03-07T01:14:32;31.02;27.84;38.60;;
67900;Laerm;54700;51.796;10.956;2024-03-07T01:16:58;31.46;27.85;38.71;;
67900;Laerm;54700;51.796;10.956;2024-03-07T01:19:27;31.42;27.92;43.36;;
67900;Laerm;54700;51.796;10.956;2024-03-07T01:21:54;31.69;27.75;44.50;;
67900;Laerm;54700;51.796;10.956;2024-03-07T01:24:20;31.30;28.85;39.60;;
67900;Laerm;54700;51.796;10.956;2024-03-07T01:26:48;32.31;27.87;42.16;;
67900;Laerm;54700;51.796;10.956;2024-03-07T01:29:15;30.05;27.62;37.77;;
67900;Laerm;54700;51.796;10.956;2024-03-07T01:31:42;29.23;27.47;36.70;;
67900;Laerm;54700;51.796;10.956;2024-03-07T01:34:08;30.09;27.66;35.67;;
67900;Laerm;54700;51.796;10.956;2024-03-07T01:36:40;52.54;28.05;70.96;;
67900;Laerm;54700;51.796;10.956;2024-03-07T01:39:07;31.11;28.07;40.61;;
67900;Laerm;54700;51.796;10.956;2024-03-07T01:41:36;31.07;28.06;42.66;;
67900;Laerm;54700;51.796;10.956;2024-03-07T01:44:03;29.73;27.86;34.73;;
67900;Laerm;54700;51.796;10.956;2024-03-07T01:46:30;30.33;27.65;34.67;;
67900;Laerm;54700;51.796;10.956;2024-03-07T01:48:57;30.76;28.20;35.88;;
67900;Laerm;54700;51.796;10.956;2024-03-07T01:51:25;54.65;29.55;71.34;;
67900;Laerm;54700;51.796;10.956;2024-03-07T01:53:54;31.45;28.59;42.52;;
67900;Laerm;54700;51.796;10.956;2024-03-07T01:56:21;49.75;28.76;66.00;;
67900;Laerm;54700;51.796;10.956;2024-03-07T01:58:49;32.99;28.77;41.85;;
67900;Laerm;54700;51.796;10.956;2024-03-07T02:01:17;32.47;27.38;49.07;;
67900;Laerm;54700;51.796;10.956;2024-03-07T02:03:44;28.70;27.03;33.06;;
67900;Laerm;54700;51.796;10.956;2024-03-07T02:06:11;30.78;27.60;41.15;;
67900;Laerm;54700;51.796;10.956;2024-03-07T02:08:38;31.72;28.23;40.69;;
67900;Laerm;54700;51.796;10.956;2024-03-07T02:11:07;33.96;28.65;57.00;;
67900;Laerm;54700;51.796;10.956;2024-03-07T02:13:35;35.20;29.46;45.72;;
67900;Laerm;54700;51.796;10.956;2024-03-07T02:16:02;32.92;28.96;42.56;;
67900;Laerm;54700;51.796;10.956;2024-03-07T02:18:29;31.38;27.73;41.52;;
67900;Laerm;54700;51.796;10.956;2024-03-07T02:20:57;50.14;27.80;67.71;;
67900;Laerm;54700;51.796;10.956;2024-03-07T02:23:24;32.59;27.86;43.38;;
67900;Laerm;54700;51.796;10.956;2024-03-07T02:25:52;31.25;28.37;40.66;;
67900;Laerm;54700;51.796;10.956;2024-03-07T02:28:19;33.58;28.98;41.27;;
67900;Laerm;54700;51.796;10.956;2024-03-07T02:30:46;35.02;29.65;49.98;;
67900;Laerm;54700;51.796;10.956;2024-03-07T02:33:12;52.78;29.32;69.75;;
67900;Laerm;54700;51.796;10.956;2024-03-07T02:35:40;50.38;29.65;65.90;;
67900;Laerm;54700;51.796;10.956;2024-03-07T02:38:08;36.67;30.67;47.79;;
67900;Laerm;54700;51.796;10.956;2024-03-07T02:40:35;39.13;31.39;52.05;;
67900;Laerm;54700;51.796;10.956;2024-03-07T02:43:02;36.27;31.41;45.98;;
67900;Laerm;54700;51.796;10.956;2024-03-07T02:45:30;34.11;29.51;41.93;;
67900;Laerm;54700;51.796;10.956;2024-03-07T02:47:59;34.73;30.05;43.85;;
67900;Laerm;54700;51.796;10.956;2024-03-07T02:50:29;35.11;31.15;48.71;;
67900;Laerm;54700;51.796;10.956;2024-03-07T02:52:56;48.93;31.00;64.53;;
67900;Laerm;54700;51.796;10.956;2024-03-07T02:55:24;54.77;29.59;71.40;;
67900;Laerm;54700;51.796;10.956;2024-03-07T02:57:52;32.64;29.09;45.40;;
67900;Laerm;54700;51.796;10.956;2024-03-07T03:00:19;32.52;28.11;46.97;;
67900;Laerm;54700;51.796;10.956;2024-03-07T03:02:46;32.49;28.84;58.72;;
67900;Laerm;54700;51.796;10.956;2024-03-07T03:05:14;36.32;28.86;52.11;;
67900;Laerm;54700;51.796;10.956;2024-03-07T03:07:41;52.18;29.67;66.24;;
67900;Laerm;54700;51.796;10.956;2024-03-07T03:10:10;34.05;30.48;43.41;;
67900;Laerm;54700;51.796;10.956;2024-03-07T03:12:41;34.28;30.41;40.34;;
67900;Laerm;54700;51.796;10.956;2024-03-07T03:15:08;56.43;29.94;69.26;;
67900;Laerm;54700;51.796;10.956;2024-03-07T03:17:37;50.77;29.69;67.26;;
67900;Laerm;54700;51.796;10.956;2024-03-07T03:20:05;32.56;29.23;48.98;;
67900;Laerm;54700;51.796;10.956;2024-03-07T03:22:53;32.58;29.03;38.28;;
67900;Laerm;54700;51.796;10.956;2024-03-07T03:25:20;39.78;30.86;70.10;;
67900;Laerm;54700;51.796;10.956;2024-03-07T03:27:50;52.10;31.11;68.91;;
67900;Laerm;54700;51.796;10.956;2024-03-07T03:30:17;51.54;29.62;68.95;;
67900;Laerm;54700;51.796;10.956;2024-03-07T03:32:45;33.42;30.30;40.46;;
67900;Laerm;54700;51.796;10.956;2024-03-07T03:35:13;50.01;29.49;65.95;;
67900;Laerm;54700;51.796;10.956;2024-03-07T03:37:41;57.81;29.90;74.90;;
67900;Laerm;54700;51.796;10.956;2024-03-07T03:40:12;50.40;29.60;67.75;;
67900;Laerm;54700;51.796;10.956;2024-03-07T03:42:40;34.99;30.32;50.52;;
67900;Laerm;54700;51.796;10.956;2024-03-07T03:45:09;46.80;30.06;65.33;;
67900;Laerm;54700;51.796;10.956;2024-03-07T03:47:40;51.97;30.39;67.89;;
67900;Laerm;54700;51.796;10.956;2024-03-07T03:50:09;34.00;30.36;46.52;;
67900;Laerm;54700;51.796;10.956;2024-03-07T03:52:36;53.43;31.32;67.92;;
67900;Laerm;54700;51.796;10.956;2024-03-07T03:55:04;54.14;31.61;69.93;;
67900;Laerm;54700;51.796;10.956;2024-03-07T03:57:33;50.06;30.48;65.55;;
67900;Laerm;54700;51.796;10.956;2024-03-07T04:00:00;58.80;31.54;72.63;;
67900;Laerm;54700;51.796;10.956;2024-03-07T04:02:31;36.57;30.24;48.73;;
67900;Laerm;54700;51.796;10.956;2024-03-07T04:04:58;55.69;30.43;68.45;;
67900;Laerm;54700;51.796;10.956;2024-03-07T04:07:25;35.11;31.07;45.88;;
67900;Laerm;54700;51.796;10.956;2024-03-07T04:09:52;56.05;30.30;72.06;;
67900;Laerm;54700;51.796;10.956;2024-03-07T04:12:19;57.02;30.95;70.68;;
67900;Laerm;54700;51.796;10.956;2024-03-07T04:14:46;59.25;32.21;72.93;;
67900;Laerm;54700;51.796;10.956;2024-03-07T04:17:13;56.08;31.86;68.62;;
67900;Laerm;54700;51.796;10.956;2024-03-07T04:19:43;59.07;31.24;71.15;;
67900;Laerm;54700;51.796;10.956;2024-03-07T04:22:10;59.14;31.68;71.73;;
67900;Laerm;54700;51.796;10.956;2024-03-07T04:24:36;60.23;32.67;70.60;;
67900;Laerm;54700;51.796;10.956;2024-03-07T04:27:04;59.26;32.75;70.84;;
67900;Laerm;54700;51.796;10.956;2024-03-07T04:29:32;59.78;32.84;70.00;;
67900;Laerm;54700;51.796;10.956;2024-03-07T04:31:59;58.02;36.33;69.99;;
67900;Laerm;54700;51.796;10.956;2024-03-07T04:34:26;59.19;37.00;71.34;;
67900;Laerm;54700;51.796;10.956;2024-03-07T04:36:54;62.01;36.12;73.13;;
67900;Laerm;54700;51.796;10.956;2024-03-07T04:39:21;61.45;36.79;71.47;;
67900;Laerm;54700;51.796;10.956;2024-03-07T04:41:56;61.38;37.61;72.79;;
67900;Laerm;54700;51.796;10.956;2024-03-07T04:44:23;60.76;34.83;72.17;;
67900;Laerm;54700;51.796;10.956;2024-03-07T04:46:50;62.10;35.15;74.18;;
67900;Laerm;54700;51.796;10.956;2024-03-07T04:49:21;61.42;36.59;71.75;;
67900;Laerm;54700;51.796;10.956;2024-03-07T04:51:50;64.97;34.74;76.33;;
67900;Laerm;54700;51.796;10.956;2024-03-07T04:54:19;60.62;36.92;71.61;;
67900;Laerm;54700;51.796;10.956;2024-03-07T04:56:48;59.14;34.52;72.06;;
67900;Laerm;54700;51.796;10.956;2024-03-07T04:59:17;61.50;34.89;71.91;;
67900;Laerm;54700;51.796;10.956;2024-03-07T05:01:44;61.80;33.13;74.88;;
67900;Laerm;54700;51.796;10.956;2024-03-07T05:04:12;58.54;33.57;71.23;;
67900;Laerm;54700;51.796;10.956;2024-03-07T05:06:39;63.36;35.72;71.98;;
67900;Laerm;54700;51.796;10.956;2024-03-07T05:09:08;60.98;35.02;72.33;;
67900;Laerm;54700;51.796;10.956;2024-03-07T05:11:36;57.35;32.99;70.34;;
67900;Laerm;54700;51.796;10.956;2024-03-07T05:14:03;60.60;36.00;70.26;;
67900;Laerm;54700;51.796;10.956;2024-03-07T05:16:31;60.43;33.54;72.84;;
67900;Laerm;54700;51.796;10.956;2024-03-07T05:18:58;62.39;38.91;71.95;;
67900;Laerm;54700;51.796;10.956;2024-03-07T05:21:26;60.34;34.48;71.23;;
67900;Laerm;54700;51.796;10.956;2024-03-07T05:24:06;58.86;35.34;75.62;;
67900;Laerm;54700;51.796;10.956;2024-03-07T05:26:34;63.20;37.45;73.42;;
67900;Laerm;54700;51.796;10.956;2024-03-07T05:29:04;64.43;39.58;72.84;;
67900;Laerm;54700;51.796;10.956;2024-03-07T05:31:34;60.28;34.22;71.50;;
67900;Laerm;54700;51.796;10.956;2024-03-07T05:34:01;62.37;40.67;71.46;;
67900;Laerm;54700;51.796;10.956;2024-03-07T05:36:30;66.49;43.90;77.53;;
67900;Laerm;54700;51.796;10.956;2024-03-07T05:38:57;64.21;43.30;71.80;;
67900;Laerm;54700;51.796;10.956;2024-03-07T05:41:25;62.33;38.98;70.80;;
67900;Laerm;54700;51.796;10.956;2024-03-07T05:43:55;63.20;36.94;73.92;;
67900;Laerm;54700;51.796;10.956;2024-03-07T05:46:23;65.76;47.62;76.36;;
67900;Laerm;54700;51.796;10.956;2024-03-07T05:48:50;63.04;40.30;76.42;;
67900;Laerm;54700;51.796;10.956;2024-03-07T05:51:21;64.92;46.37;73.25;;
67900;Laerm;54700;51.796;10.956;2024-03-07T05:53:48;64.23;45.59;73.50;;
67900;Laerm;54700;51.796;10.956;2024-03-07T05:56:15;64.70;43.10;79.78;;
67900;Laerm;54700;51.796;10.956;2024-03-07T05:58:45;65.39;44.43;78.06;;
67900;Laerm;54700;51.796;10.956;2024-03-07T06:01:14;65.33;48.44;73.51;;
67900;Laerm;54700;51.796;10.956;2024-03-07T06:03:43;65.17;49.52;73.30;;
67900;Laerm;54700;51.796;10.956;2024-03-07T06:06:10;65.91;51.18;73.45;;
67900;Laerm;54700;51.796;10.956;2024-03-07T06:08:38;61.34;40.83;75.19;;
67900;Laerm;54700;51.796;10.956;2024-03-07T06:11:08;64.01;52.60;70.53;;
67900;Laerm;54700;51.796;10.956;2024-03-07T06:13:35;63.95;44.96;74.54;;
67900;Laerm;54700;51.796;10.956;2024-03-07T06:16:02;64.44;44.23;73.81;;
67900;Laerm;54700;51.796;10.956;2024-03-07T06:18:34;63.74;40.92;70.95;;
67900;Laerm;54700;51.796;10.956;2024-03-07T06:21:02;65.37;41.51;76.41;;
67900;Laerm;54700;51.796;10.956;2024-03-07T06:23:33;63.94;46.69;76.92;;
67900;Laerm;54700;51.796;10.956;2024-03-07T06:26:01;64.88;46.09;72.01;;
67900;Laerm;54700;51.796;10.956;2024-03-07T06:28:38;66.02;46.45;73.02;;
67900;Laerm;54700;51.796;10.956;2024-03-07T06:31:05;63.45;39.73;73.39;;
67900;Laerm;54700;51.796;10.956;2024-03-07T06:33:33;65.27;44.44;73.08;;
67900;Laerm;54700;51.796;10.956;2024-03-07T06:36:02;64.59;43.56;71.71;;
67900;Laerm;54700;51.796;10.956;2024-03-07T06:38:30;65.02;48.36;76.98;;
67900;Laerm;54700;51.796;10.956;2024-03-07T06:40:57;65.54;49.04;72.46;;
67900;Laerm;54700;51.796;10.956;2024-03-07T06:43:24;65.23;52.75;72.49;;
67900;Laerm;54700;51.796;10.956;2024-03-07T06:45:51;65.55;56.15;76.28;;
67900;Laerm;54700;51.796;10.956;2024-03-07T06:48:23;66.69;49.63;77.27;;
67900;Laerm;54700;51.796;10.956;2024-03-07T06:50:53;65.01;50.49;76.95;;
67900;Laerm;54700;51.796;10.956;2024-03-07T06:53:24;64.90;52.36;71.27;;
67900;Laerm;54700;51.796;10.956;2024-03-07T06:55:52;65.18;46.36;78.88;;
67900;Laerm;54700;51.796;10.956;2024-03-07T06:58:19;64.68;45.24;77.04;;
67900;Laerm;54700;51.796;10.956;2024-03-07T07:00:46;65.06;53.34;79.56;;
67900;Laerm;54700;51.796;10.956;2024-03-07T07:03:13;64.81;44.88;73.66;;
67900;Laerm;54700;51.796;10.956;2024-03-07T07:05:40;65.37;48.19;74.85;;
67900;Laerm;54700;51.796;10.956;2024-03-07T07:08:07;64.56;45.98;77.79;;
67900;Laerm;54700;51.796;10.956;2024-03-07T07:10:39;62.15;46.74;70.28;;
67900;Laerm;54700;51.796;10.956;2024-03-07T07:13:06;63.59;47.21;73.32;;
67900;Laerm;54700;51.796;10.956;2024-03-07T07:15:33;63.83;43.67;73.05;;
67900;Laerm;54700;51.796;10.956;2024-03-07T07:18:00;63.61;43.28;72.63;;
67900;Laerm;54700;51.796;10.956;2024-03-07T07:20:30;65.76;44.05;81.07;;
67900;Laerm;54700;51.796;10.956;2024-03-07T07:23:00;62.14;42.47;71.60;;
67900;Laerm;54700;51.796;10.956;2024-03-07T07:25:29;63.15;40.62;72.08;;
67900;Laerm;54700;51.796;10.956;2024-03-07T07:27:58;63.37;39.56;74.23;;
67900;Laerm;54700;51.796;10.956;2024-03-07T07:30:25;61.60;38.41;72.08;;
67900;Laerm;54700;51.796;10.956;2024-03-07T07:32:54;64.34;37.07;76.39;;
67900;Laerm;54700;51.796;10.956;2024-03-07T07:35:22;62.45;40.34;73.28;;
67900;Laerm;54700;51.796;10.956;2024-03-07T07:37:50;62.81;38.04;72.23;;
67900;Laerm;54700;51.796;10.956;2024-03-07T07:40:20;64.30;41.34;76.10;;
67900;Laerm;54700;51.796;10.956;2024-03-07T07:42:52;63.90;45.70;72.52;;
67900;Laerm;54700;51.796;10.956;2024-03-07T07:45:21;62.32;39.56;74.08;;
67900;Laerm;54700;51.796;10.956;2024-03-07T07:47:50;64.01;46.00;72.91;;
67900;Laerm;54700;51.796;10.956;2024-03-07T07:50:19;63.20;44.93;71.05;;
67900;Laerm;54700;51.796;10.956;2024-03-07T07:52:50;64.95;45.49;77.73;;
67900;Laerm;54700;51.796;10.956;2024-03-07T07:55:20;64.07;45.16;74.13;;
67900;Laerm;54700;51.796;10.956;2024-03-07T07:57:52;64.80;42.95;79.14;;
67900;Laerm;54700;51.796;10.956;2024-03-07T08:00:21;65.01;45.57;75.16;;
67900;Laerm;54700;51.796;10.956;2024-03-07T08:02:50;63.64;42.09;78.65;;
67900;Laerm;54700;51.796;10.956;2024-03-07T08:05:18;65.36;54.32;71.83;;
67900;Laerm;54700;51.796;10.956;2024-03-07T08:07:48;62.92;39.85;69.62;;
67900;Laerm;54700;51.796;10.956;2024-03-07T08:10:21;63.03;38.82;70.47;;
67900;Laerm;54700;51.796;10.956;2024-03-07T08:12:48;63.01;41.72;77.62;;
67900;Laerm;54700;51.796;10.956;2024-03-07T08:15:16;63.19;41.92;73.86;;
67900;Laerm;54700;51.796;10.956;2024-03-07T08:17:46;60.50;37.37;71.72;;
67900;Laerm;54700;51.796;10.956;2024-03-07T08:20:17;63.41;43.85;71.39;;
67900;Laerm;54700;51.796;10.956;2024-03-07T08:22:46;63.55;43.00;73.12;;
67900;Laerm;54700;51.796;10.956;2024-03-07T08:25:14;65.88;49.24;77.52;;
67900;Laerm;54700;51.796;10.956;2024-03-07T08:27:45;63.73;40.05;71.97;;
67900;Laerm;54700;51.796;10.956;2024-03-07T08:30:12;62.27;44.74;70.62;;
67900;Laerm;54700;51.796;10.956;2024-03-07T08:32:40;64.44;41.01;75.31;;
67900;Laerm;54700;51.796;10.956;2024-03-07T08:35:09;64.00;51.25;70.42;;
67900;Laerm;54700;51.796;10.956;2024-03-07T08:37:37;64.02;39.75;73.30;;
67900;Laerm;54700;51.796;10.956;2024-03-07T08:40:06;62.34;42.11;72.39;;
67900;Laerm;54700;51.796;10.956;2024-03-07T08:42:36;63.13;42.61;77.71;;
67900;Laerm;54700;51.796;10.956;2024-03-07T08:45:04;62.96;40.73;70.65;;
67900;Laerm;54700;51.796;10.956;2024-03-07T08:47:36;62.06;40.40;72.03;;
67900;Laerm;54700;51.796;10.956;2024-03-07T08:50:04;65.14;47.40;75.41;;
67900;Laerm;54700;51.796;10.956;2024-03-07T08:52:35;63.29;43.88;71.72;;
67900;Laerm;54700;51.796;10.956;2024-03-07T08:55:08;64.89;40.79;80.77;;
67900;Laerm;54700;51.796;10.956;2024-03-07T08:57:42;63.48;43.53;76.44;;
67900;Laerm;54700;51.796;10.956;2024-03-07T09:00:15;65.13;42.47;74.71;;
67900;Laerm;54700;51.796;10.956;2024-03-07T09:02:48;61.98;41.54;80.90;;
67900;Laerm;54700;51.796;10.956;2024-03-07T09:05:17;60.88;36.16;70.95;;
67900;Laerm;54700;51.796;10.956;2024-03-07T09:07:46;63.78;38.54;77.27;;
67900;Laerm;54700;51.796;10.956;2024-03-07T09:10:13;63.76;40.95;73.16;;
67900;Laerm;54700;51.796;10.956;2024-03-07T09:12:41;63.69;43.69;71.83;;
67900;Laerm;54700;51.796;10.956;2024-03-07T09:15:10;62.41;39.58;73.31;;
67900;Laerm;54700;51.796;10.956;2024-03-07T09:17:42;61.77;36.78;71.61;;
67900;Laerm;54700;51.796;10.956;2024-03-07T09:20:10;63.21;45.34;71.89;;
67900;Laerm;54700;51.796;10.956;2024-03-07T09:22:40;63.27;42.38;74.89;;
67900;Laerm;54700;51.796;10.956;2024-03-07T09:25:09;64.02;48.69;72.68;;
67900;Laerm;54700;51.796;10.956;2024-03-07T09:27:38;63.99;43.35;75.51;;
67900;Laerm;54700;51.796;10.956;2024-03-07T09:30:06;66.53;48.68;81.58;;
67900;Laerm;54700;51.796;10.956;2024-03-07T09:32:40;63.31;43.37;72.57;;
67900;Laerm;54700;51.796;10.956;2024-03-07T09:35:08;65.77;44.82;75.76;;
67900;Laerm;54700;51.796;10.956;2024-03-07T09:37:39;63.69;44.37;76.51;;
67900;Laerm;54700;51.796;10.956;2024-03-07T09:40:08;63.22;45.22;72.84;;
67900;Laerm;54700;51.796;10.956;2024-03-07T09:42:42;65.41;47.37;76.75;;
67900;Laerm;54700;51.796;10.956;2024-03-07T09:45:14;65.34;49.51;73.90;;
67900;Laerm;54700;51.796;10.956;2024-03-07T09:47:45;65.22;44.46;80.05;;
67900;Laerm;54700;51.796;10.956;2024-03-07T09:50:15;64.48;37.89;75.32;;
67900;Laerm;54700;51.796;10.956;2024-03-07T09:52:45;64.43;41.39;82.07;;
67900;Laerm;54700;51.796;10.956;2024-03-07T09:55:16;63.90;46.49;76.61;;
67900;Laerm;54700;51.796;10.956;2024-03-07T09:57:47;63.88;43.45;71.01;;
67900;Laerm;54700;51.796;10.956;2024-03-07T10:00:17;62.56;37.45;75.55;;
67900;Laerm;54700;51.796;10.956;2024-03-07T10:02:50;63.50;44.86;72.19;;
67900;Laerm;54700;51.796;10.956;2024-03-07T10:05:19;67.36;50.88;83.92;;
67900;Laerm;54700;51.796;10.956;2024-03-07T10:07:48;64.20;45.97;70.91;;
67900;Laerm;54700;51.796;10.956;2024-03-07T10:10:18;64.07;47.42;70.29;;
67900;Laerm;54700;51.796;10.956;2024-03-07T10:12:45;64.50;48.10;77.72;;
67900;Laerm;54700;51.796;10.956;2024-03-07T10:15:11;63.31;38.21;71.89;;
67900;Laerm;54700;51.796;10.956;2024-03-07T10:17:39;62.46;41.79;72.52;;
67900;Laerm;54700;51.796;10.956;2024-03-07T10:20:07;62.88;52.02;70.42;;
67900;Laerm;54700;51.796;10.956;2024-03-07T10:22:39;63.65;44.61;72.43;;
67900;Laerm;54700;51.796;10.956;2024-03-07T10:25:07;65.15;41.75;72.48;;
67900;Laerm;54700;51.796;10.956;2024-03-07T10:27:37;62.77;43.99;70.20;;
67900;Laerm;54700;51.796;10.956;2024-03-07T10:30:06;62.80;37.70;81.41;;
67900;Laerm;54700;51.796;10.956;2024-03-07T10:32:37;63.25;41.81;76.14;;
67900;Laerm;54700;51.796;10.956;2024-03-07T10:35:07;65.29;46.44;77.57;;
67900;Laerm;54700;51.796;10.956;2024-03-07T10:37:35;63.29;40.31;70.70;;
67900;Laerm;54700;51.796;10.956;2024-03-07T10:40:03;63.32;48.56;72.16;;
67900;Laerm;54700;51.796;10.956;2024-03-07T10:42:45;62.43;41.72;74.92;;
67900;Laerm;54700;51.796;10.956;2024-03-07T10:45:18;62.57;41.54;73.73;;
67900;Laerm;54700;51.796;10.956;2024-03-07T10:47:53;63.61;43.03;77.78;;
67900;Laerm;54700;51.796;10.956;2024-03-07T10:50:30;63.07;45.39;70.42;;
67900;Laerm;54700;51.796;10.956;2024-03-07T10:53:14;63.96;46.53;72.71;;
67900;Laerm;54700;51.796;10.956;2024-03-07T10:55:53;63.59;40.89;73.14;;
67900;Laerm;54700;51.796;10.956;2024-03-07T10:58:33;62.16;40.75;70.90;;
67900;Laerm;54700;51.796;10.956;2024-03-07T11:01:07;64.72;42.51;76.22;;
67900;Laerm;54700;51.796;10.956;2024-03-07T11:03:39;64.72;46.73;75.81;;
67900;Laerm;54700;51.796;10.956;2024-03-07T11:06:08;63.62;47.20;73.40;;
67900;Laerm;54700;51.796;10.956;2024-03-07T11:08:37;64.43;48.88;76.69;;
67900;Laerm;54700;51.796;10.956;2024-03-07T11:11:05;64.18;42.66;75.21;;
67900;Laerm;54700;51.796;10.956;2024-03-07T11:13:35;64.05;45.72;72.69;;
67900;Laerm;54700;51.796;10.956;2024-03-07T11:16:04;63.53;40.50;74.56;;
67900;Laerm;54700;51.796;10.956;2024-03-07T11:18:34;61.46;35.35;71.56;;
67900;Laerm;54700;51.796;10.956;2024-03-07T11:21:03;62.79;40.22;72.05;;
67900;Laerm;54700;51.796;10.956;2024-03-07T11:23:36;62.74;38.18;71.51;;
67900;Laerm;54700;51.796;10.956;2024-03-07T11:26:08;64.49;45.88;72.48;;
67900;Laerm;54700;51.796;10.956;2024-03-07T11:28:40;63.49;37.34;74.85;;
67900;Laerm;54700;51.796;10.956;2024-03-07T11:31:13;63.70;40.01;71.11;;
67900;Laerm;54700;51.796;10.956;2024-03-07T11:33:40;61.75;39.00;72.83;;
67900;Laerm;54700;51.796;10.956;2024-03-07T11:36:09;63.28;44.11;70.44;;
67900;Laerm;54700;51.796;10.956;2024-03-07T11:38:47;60.19;38.43;71.23;;
67900;Laerm;54700;51.796;10.956;2024-03-07T11:41:23;64.26;37.10;78.77;;
67900;Laerm;54700;51.796;10.956;2024-03-07T11:43:53;65.33;35.73;76.89;;
67900;Laerm;54700;51.796;10.956;2024-03-07T11:46:22;62.77;37.69;71.28;;
67900;Laerm;54700;51.796;10.956;2024-03-07T11:48:49;61.58;41.21;69.87;;
67900;Laerm;54700;51.796;10.956;2024-03-07T11:51:20;64.67;41.10;77.91;;
67900;Laerm;54700;51.796;10.956;2024-03-07T11:53:51;62.27;42.86;79.50;;
67900;Laerm;54700;51.796;10.956;2024-03-07T11:56:21;62.17;41.87;71.81;;
67900;Laerm;54700;51.796;10.956;2024-03-07T11:58:49;59.60;38.23;79.11;;
67900;Laerm;54700;51.796;10.956;2024-03-07T12:01:22;59.42;37.75;70.00;;
67900;Laerm;54700;51.796;10.956;2024-03-07T12:03:50;64.42;39.39;75.31;;
67900;Laerm;54700;51.796;10.956;2024-03-07T12:06:18;62.85;43.31;72.34;;
67900;Laerm;54700;51.796;10.956;2024-03-07T12:08:46;61.37;35.50;70.21;;
67900;Laerm;54700;51.796;10.956;2024-03-07T12:11:14;62.46;40.34;76.39;;
67900;Laerm;54700;51.796;10.956;2024-03-07T12:13:42;64.26;38.72;72.24;;
67900;Laerm;54700;51.796;10.956;2024-03-07T12:16:08;60.66;36.95;71.24;;
67900;Laerm;54700;51.796;10.956;2024-03-07T12:18:37;59.37;36.87;69.49;;
67900;Laerm;54700;51.796;10.956;2024-03-07T12:21:04;62.04;38.56;73.32;;
67900;Laerm;54700;51.796;10.956;2024-03-07T12:23:34;61.38;39.46;72.69;;
67900;Laerm;54700;51.796;10.956;2024-03-07T12:26:03;62.63;41.50;73.17;;
67900;Laerm;54700;51.796;10.956;2024-03-07T12:28:31;62.70;41.14;74.42;;
67900;Laerm;54700;51.796;10.956;2024-03-07T12:30:58;62.19;35.81;71.03;;
67900;Laerm;54700;51.796;10.956;2024-03-07T12:33:29;63.06;38.51;70.81;;
67900;Laerm;54700;51.796;10.956;2024-03-07T12:36:02;64.72;44.28;76.99;;
67900;Laerm;54700;51.796;10.956;2024-03-07T12:38:33;62.13;39.82;72.84;;
67900;Laerm;54700;51.796;10.956;2024-03-07T12:41:03;62.71;41.34;70.31;;
67900;Laerm;54700;51.796;10.956;2024-03-07T12:43:32;64.15;39.41;78.74;;
67900;Laerm;54700;51.796;10.956;2024-03-07T12:45:59;63.59;48.26;80.03;;
67900;Laerm;54700;51.796;10.956;2024-03-07T12:48:26;86.50;50.04;105.64;;
67900;Laerm;54700;51.796;10.956;2024-03-07T12:50:53;62.85;44.57;71.44;;
67900;Laerm;54700;51.796;10.956;2024-03-07T12:53:22;63.73;50.66;74.17;;
67900;Laerm;54700;51.796;10.956;2024-03-07T12:55:51;62.67;44.95;75.77;;
67900;Laerm;54700;51.796;10.956;2024-03-07T12:58:19;62.16;42.85;71.22;;
67900;Laerm;54700;51.796;10.956;2024-03-07T13:00:47;62.68;46.52;69.78;;
67900;Laerm;54700;51.796;10.956;2024-03-07T13:03:14;63.72;41.94;74.86;;
67900;Laerm;54700;51.796;10.956;2024-03-07T13:05:42;74.87;42.35;100.20;;
67900;Laerm;54700;51.796;10.956;2024-03-07T13:08:09;76.30;44.79;99.08;;
67900;Laerm;54700;51.796;10.956;2024-03-07T13:10:40;64.19;42.53;76.34;;
67900;Laerm;54700;51.796;10.956;2024-03-07T13:13:08;64.45;47.10;74.30;;
67900;Laerm;54700;51.796;10.956;2024-03-07T13:15:36;66.03;50.89;77.48;;
67900;Laerm;54700;51.796;10.956;2024-03-07T13:18:05;63.51;42.20;70.07;;
67900;Laerm;54700;51.796;10.956;2024-03-07T13:20:32;62.32;35.52;71.15;;
67900;Laerm;54700;51.796;10.956;2024-03-07T13:22:59;63.28;39.26;73.93;;
67900;Laerm;54700;51.796;10.956;2024-03-07T13:25:28;63.44;42.26;73.24;;
67900;Laerm;54700;51.796;10.956;2024-03-07T13:28:02;63.89;38.98;76.75;;
67900;Laerm;54700;51.796;10.956;2024-03-07T13:30:33;61.76;41.13;70.95;;
67900;Laerm;54700;51.796;10.956;2024-03-07T13:33:02;65.98;45.87;76.31;;
67900;Laerm;54700;51.796;10.956;2024-03-07T13:35:31;64.35;44.61;81.32;;
67900;Laerm;54700;51.796;10.956;2024-03-07T13:37:59;62.29;40.76;70.87;;
67900;Laerm;54700;51.796;10.956;2024-03-07T13:40:26;63.07;46.92;70.72;;